Time;durP1;ratioP1;P1;durP2;ratioP2;P2;SDS_P1;SDS_P2;PMS_P1;PMS_P2;Temp;Humidity;BMP_temperature;BMP_pressure;BME280_temperature;BME280_humidity;BME280_pressure;Samples;Min_cycle;Max_cycle;Signal;HPM_P1;HPM_P2
2021/04/10 00:01:17;;;;;;;8.43;2.10;;;5.40;91.60;;;;;;5062615;28;20482;-81
2021/04/10 00:03:43;;;;;;;9.85;2.95;;;5.30;91.60;;;;;;5068531;28;20059;-81
2021/04/10 00:06:09;;;;;;;17.55;2.65;;;5.30;91.60;;;;;;5066197;28;20067;-81
2021/04/10 00:08:35;;;;;;;16.58;3.30;;;5.30;91.60;;;;;;5065392;28;20043;-82
2021/04/10 00:11:01;;;;;;;13.10;3.70;;;5.30;91.60;;;;;;5050356;28;20032;-81
2021/04/10 00:13:27;;;;;;;13.10;3.10;;;5.30;91.60;;;;;;5068942;28;20043;-81
2021/04/10 00:15:53;;;;;;;16.42;3.35;;;5.30;91.60;;;;;;5065128;28;20483;-81
2021/04/10 00:18:20;;;;;;;11.50;2.65;;;5.30;91.60;;;;;;5072858;28;20045;-81
2021/04/10 00:20:45;;;;;;;13.43;2.97;;;5.30;91.60;;;;;;5064292;28;20079;-81
2021/04/10 00:23:12;;;;;;;16.05;3.30;;;5.30;91.60;;;;;;5052190;28;20071;-82
2021/04/10 00:25:38;;;;;;;14.48;3.47;;;5.30;91.60;;;;;;5067540;28;20635;-81
2021/04/10 00:28:06;;;;;;;16.73;3.03;;;5.30;91.60;;;;;;5057139;28;20032;-81
2021/04/10 00:30:32;;;;;;;13.18;3.45;;;5.30;91.60;;;;;;5073956;28;20035;-81
2021/04/10 00:32:57;;;;;;;14.98;3.65;;;5.30;91.60;;;;;;5063088;28;20638;-81
2021/04/10 00:35:23;;;;;;;18.63;3.30;;;5.30;91.60;;;;;;5068897;28;20036;-81
2021/04/10 00:37:50;;;;;;;11.65;2.88;;;5.30;91.70;;;;;;5074674;28;20038;-81
2021/04/10 00:40:15;;;;;;;13.90;3.20;;;5.30;91.70;;;;;;5070110;28;20630;-81
2021/04/10 00:42:42;;;;;;;19.30;2.90;;;5.20;91.70;;;;;;5062344;28;20042;-81
2021/04/10 00:45:09;;;;;;;17.23;3.45;;;5.30;91.70;;;;;;5073914;28;20037;-81
2021/04/10 00:47:35;;;;;;;12.88;3.38;;;5.20;91.70;;;;;;5073426;28;20717;-81
2021/04/10 00:50:01;;;;;;;11.02;2.90;;;5.20;91.70;;;;;;5074424;28;20891;-81
2021/04/10 00:52:29;;;;;;;12.98;3.80;;;5.20;91.70;;;;;;5057020;28;20032;-81
2021/04/10 00:54:56;;;;;;;13.57;3.40;;;5.20;91.80;;;;;;5074468;28;20123;-81
2021/04/10 00:57:23;;;;;;;22.48;3.92;;;5.20;91.70;;;;;;5076033;28;20024;-81
2021/04/10 00:59:49;;;;;;;22.55;3.40;;;5.30;91.80;;;;;;5071465;28;20036;-81
2021/04/10 01:02:14;;;;;;;11.43;3.83;;;5.20;91.70;;;;;;5074191;28;20446;-81
2021/04/10 01:04:41;;;;;;;21.20;4.30;;;5.20;91.80;;;;;;5058086;28;20055;-81
2021/04/10 01:07:07;;;;;;;17.05;3.33;;;5.20;91.80;;;;;;5072418;28;20043;-81
2021/04/10 01:09:33;;;;;;;18.27;4.45;;;5.20;91.80;;;;;;5080695;28;20035;-81
2021/04/10 01:12:11;;;;;;;20.20;4.57;;;5.20;91.80;;;;;;5082497;28;20037;-81
2021/04/10 01:15:06;;;;;;;18.98;4.28;;;5.20;91.80;;;;;;5069892;28;20056;-81
2021/04/10 01:17:41;;;;;;;14.23;3.35;;;5.20;91.80;;;;;;5082710;28;20051;-81
2021/04/10 01:20:16;;;;;;;23.52;3.42;;;5.20;91.80;;;;;;5085921;28;20552;-82
2021/04/10 01:22:45;;;;;;;17.65;3.90;;;5.20;91.80;;;;;;5086323;28;20569;-81
2021/04/10 01:25:21;;;;;;;16.42;3.53;;;5.20;91.80;;;;;;5084270;28;20394;-81
2021/04/10 01:27:54;;;;;;;16.55;3.58;;;5.20;91.80;;;;;;5083333;28;20040;-81
2021/04/10 01:30:21;;;;;;;15.82;3.53;;;5.20;91.80;;;;;;5085345;28;20036;-81
2021/04/10 01:33:06;;;;;;;19.52;3.70;;;5.20;91.80;;;;;;5057224;28;20467;-81
2021/04/10 01:35:43;;;;;;;14.13;4.03;;;5.10;91.80;;;;;;5081277;28;20493;-81
2021/04/10 01:38:14;;;;;;;21.45;3.85;;;5.10;91.80;;;;;;5085428;28;20039;-81
2021/04/10 01:40:41;;;;;;;20.70;4.45;;;5.10;91.90;;;;;;5083441;28;20028;-81
2021/04/10 01:43:11;;;;;;;12.90;3.22;;;5.10;91.90;;;;;;5051980;28;20044;-81
2021/04/10 01:45:37;;;;;;;14.82;3.83;;;5.10;91.90;;;;;;5051388;28;20072;-81
2021/04/10 01:48:10;;;;;;;15.68;3.85;;;5.10;91.90;;;;;;5066802;28;20043;-81
2021/04/10 01:50:37;;;;;;;17.23;4.40;;;5.10;92.00;;;;;;5092147;28;20474;-81
2021/04/10 01:53:05;;;;;;;15.80;3.78;;;5.10;92.00;;;;;;5069436;28;20066;-81
2021/04/10 01:55:31;;;;;;;10.30;3.70;;;5.00;92.00;;;;;;5071326;28;20521;-81
2021/04/10 01:57:58;;;;;;;14.60;4.57;;;5.10;92.10;;;;;;5040601;28;20118;-81
2021/04/10 02:00:27;;;;;;;13.80;4.28;;;5.00;92.10;;;;;;5058322;28;20584;-81
2021/04/10 02:02:53;;;;;;;23.13;4.43;;;5.10;92.10;;;;;;5070546;28;20140;-82
2021/04/10 02:05:20;;;;;;;20.35;4.80;;;5.00;92.10;;;;;;5053393;28;20089;-82
2021/04/10 02:07:47;;;;;;;17.98;4.90;;;5.00;92.10;;;;;;5054923;28;20620;-82
2021/04/10 02:10:16;;;;;;;23.23;5.20;;;5.00;92.20;;;;;;5051799;28;20040;-82
2021/04/10 02:12:48;;;;;;;21.50;4.40;;;5.00;92.20;;;;;;5054283;28;20653;-82
2021/04/10 02:15:15;;;;;;;23.77;5.70;;;5.00;92.30;;;;;;5065582;28;20461;-82
2021/04/10 02:17:40;;;;;;;14.63;4.13;;;5.00;92.30;;;;;;5073282;28;20036;-80
2021/04/10 02:20:12;;;;;;;16.35;4.68;;;5.00;92.30;;;;;;5055433;28;20442;-80
2021/04/10 02:22:51;;;;;;;20.08;5.97;;;5.00;92.40;;;;;;5061813;28;20040;-81
2021/04/10 02:25:18;;;;;;;16.80;4.35;;;5.00;92.40;;;;;;5082124;28;20042;-81
2021/04/10 02:27:44;;;;;;;19.77;4.65;;;5.00;92.40;;;;;;5085633;28;20032;-81
2021/04/10 02:30:11;;;;;;;17.52;4.45;;;5.00;92.40;;;;;;5063493;28;20107;-81
2021/04/10 02:32:49;;;;;;;15.23;4.55;;;4.90;92.40;;;;;;5073111;28;20123;-81
2021/04/10 02:35:40;;;;;;;21.65;5.25;;;4.90;92.50;;;;;;5087443;28;20402;-80
2021/04/10 02:38:07;;;;;;;18.85;5.03;;;4.90;92.50;;;;;;5080815;28;20028;-81
2021/04/10 02:40:38;;;;;;;15.63;5.20;;;4.90;92.50;;;;;;5085666;28;20036;-81
2021/04/10 02:43:10;;;;;;;21.58;5.55;;;4.90;92.50;;;;;;5075197;28;20094;-81
2021/04/10 02:45:37;;;;;;;23.75;5.68;;;4.90;92.60;;;;;;5045399;28;20075;-80
2021/04/10 02:48:14;;;;;;;20.67;4.85;;;4.90;92.60;;;;;;5073495;28;20028;-81
2021/04/10 02:50:41;;;;;;;17.20;4.75;;;4.90;92.60;;;;;;5071932;28;20483;-80
2021/04/10 02:53:08;;;;;;;14.63;4.05;;;4.90;92.60;;;;;;5058850;28;20127;-81
2021/04/10 02:55:38;;;;;;;16.77;4.78;;;4.80;92.60;;;;;;5071619;28;20044;-80
2021/04/10 02:58:09;;;;;;;17.92;4.97;;;4.80;92.60;;;;;;5074018;28;20037;-81
2021/04/10 03:00:36;;;;;;;21.35;4.57;;;4.90;92.60;;;;;;5072587;28;20051;-81
2021/04/10 03:03:04;;;;;;;17.10;3.90;;;4.80;92.60;;;;;;5057288;28;20035;-81
2021/04/10 03:05:31;;;;;;;13.95;4.22;;;4.80;92.60;;;;;;5058081;28;20450;-81
2021/04/10 03:07:57;;;;;;;12.32;3.85;;;4.80;92.60;;;;;;5071219;28;20033;-81
2021/04/10 03:10:24;;;;;;;19.15;5.13;;;4.80;92.60;;;;;;5065993;28;20131;-81
2021/04/10 03:12:52;;;;;;;21.67;4.80;;;4.80;92.50;;;;;;5067494;28;20054;-81
2021/04/10 03:15:19;;;;;;;16.50;3.75;;;4.80;92.50;;;;;;5056942;28;20032;-81
2021/04/10 03:17:45;;;;;;;11.23;4.25;;;4.80;92.50;;;;;;5070908;28;20038;-81
2021/04/10 03:20:17;;;;;;;13.90;3.58;;;4.80;92.60;;;;;;5076572;28;20036;-81
2021/04/10 03:22:45;;;;;;;16.23;4.28;;;4.80;92.60;;;;;;5085339;28;20032;-81
2021/04/10 03:25:15;;;;;;;14.23;3.60;;;4.80;92.50;;;;;;5073274;28;20070;-81
2021/04/10 03:27:46;;;;;;;14.85;3.70;;;4.70;92.50;;;;;;5072637;28;20042;-81
2021/04/10 03:30:13;;;;;;;17.58;3.65;;;4.80;92.50;;;;;;5069205;28;20032;-81
2021/04/10 03:32:41;;;;;;;18.95;3.83;;;4.70;92.50;;;;;;5042360;28;20610;-81
2021/04/10 03:35:08;;;;;;;16.35;3.83;;;4.80;92.50;;;;;;5072368;28;20403;-81
2021/04/10 03:37:34;;;;;;;12.27;3.42;;;4.80;92.50;;;;;;5074010;28;20028;-81
2021/04/10 03:40:01;;;;;;;14.70;3.70;;;4.70;92.40;;;;;;5072841;28;20024;-81
2021/04/10 03:42:39;;;;;;;10.45;3.85;;;4.70;92.40;;;;;;5079463;28;20036;-81
2021/04/10 03:45:06;;;;;;;17.92;3.53;;;4.70;92.40;;;;;;5081128;28;20036;-81
2021/04/10 03:47:32;;;;;;;10.73;3.15;;;4.70;92.40;;;;;;5086767;28;20032;-81
2021/04/10 03:49:59;;;;;;;14.38;3.65;;;4.70;92.40;;;;;;5082543;28;20525;-81
2021/04/10 03:52:24;;;;;;;11.43;3.20;;;4.70;92.40;;;;;;5066995;28;20032;-81
2021/04/10 03:54:50;;;;;;;16.23;3.65;;;4.80;92.40;;;;;;5024641;28;20087;-81
2021/04/10 03:57:16;;;;;;;17.50;3.72;;;4.70;92.40;;;;;;5042165;28;20045;-81
2021/04/10 03:59:42;;;;;;;12.38;3.38;;;4.80;92.40;;;;;;5051112;28;20036;-81
2021/04/10 04:02:08;;;;;;;15.02;3.20;;;4.60;92.40;;;;;;5076820;28;20099;-81
2021/04/10 04:04:34;;;;;;;13.27;3.28;;;4.70;92.40;;;;;;5073372;28;20044;-81
2021/04/10 04:07:01;;;;;;;14.70;3.67;;;4.70;92.40;;;;;;5073763;28;20490;-81
2021/04/10 04:09:26;;;;;;;13.30;3.28;;;4.70;92.40;;;;;;5048419;28;20028;-81
2021/04/10 04:11:52;;;;;;;10.40;3.38;;;4.60;92.40;;;;;;5058919;28;20039;-81
2021/04/10 04:14:31;;;;;;;16.38;3.60;;;4.70;92.40;;;;;;5049663;28;20041;-81
2021/04/10 04:17:02;;;;;;;15.65;3.20;;;4.60;92.40;;;;;;5045566;28;20052;-81
2021/04/10 04:19:27;;;;;;;12.15;3.20;;;4.60;92.40;;;;;;5070305;28;20032;-81
2021/04/10 04:21:54;;;;;;;18.48;3.65;;;4.60;92.40;;;;;;5068293;28;20036;-81
2021/04/10 04:24:19;;;;;;;17.75;4.05;;;4.60;92.40;;;;;;5083928;28;20114;-81
2021/04/10 04:26:45;;;;;;;18.08;4.25;;;4.60;92.40;;;;;;5051421;28;20036;-81
2021/04/10 04:29:11;;;;;;;15.43;4.70;;;4.60;92.40;;;;;;5072549;28;20093;-81
2021/04/10 04:31:37;;;;;;;15.77;4.65;;;4.60;92.40;;;;;;5065107;28;20032;-81
2021/04/10 04:34:02;;;;;;;18.50;4.85;;;4.60;92.40;;;;;;5073683;28;20036;-81
2021/04/10 04:36:28;;;;;;;16.40;4.35;;;4.60;92.50;;;;;;5072758;28;20033;-81
2021/04/10 04:38:54;;;;;;;17.23;4.15;;;4.50;92.50;;;;;;5069574;28;20036;-80
2021/04/10 04:41:21;;;;;;;15.35;4.18;;;4.60;92.50;;;;;;5068703;28;20032;-80
2021/04/10 04:43:47;;;;;;;16.20;3.92;;;4.60;92.50;;;;;;5046510;28;20386;-81
2021/04/10 04:46:13;;;;;;;15.57;4.15;;;4.50;92.50;;;;;;5055192;28;20299;-80
2021/04/10 04:48:39;;;;;;;22.00;4.45;;;4.50;92.80;;;;;;5071188;28;20062;-81
2021/04/10 04:51:05;;;;;;;20.35;4.95;;;4.60;92.60;;;;;;5070704;28;20036;-81
2021/04/10 04:53:31;;;;;;;16.90;4.80;;;4.60;92.60;;;;;;5078762;28;20040;-81
2021/04/10 04:55:57;;;;;;;22.25;4.78;;;4.50;92.50;;;;;;5084132;28;20028;-81
2021/04/10 04:58:23;;;;;;;16.35;3.83;;;4.60;92.60;;;;;;5084582;28;20460;-82
2021/04/10 05:00:49;;;;;;;17.23;4.15;;;4.60;92.60;;;;;;5071184;28;20035;-81
2021/04/10 05:03:15;;;;;;;18.48;4.45;;;4.50;92.50;;;;;;5052780;28;20078;-81
2021/04/10 05:05:41;;;;;;;15.60;4.65;;;4.50;92.60;;;;;;5079612;28;20060;-81
2021/04/10 05:08:07;;;;;;;18.17;4.95;;;4.50;92.50;;;;;;5063674;28;20068;-81
2021/04/10 05:10:32;;;;;;;20.80;4.63;;;4.50;92.50;;;;;;5073037;28;20046;-82
2021/04/10 05:12:58;;;;;;;15.80;5.28;;;4.50;92.50;;;;;;5067467;28;20470;-80
2021/04/10 05:15:24;;;;;;;20.00;5.50;;;4.50;92.50;;;;;;5067462;28;20040;-81
2021/04/10 05:17:50;;;;;;;19.05;5.43;;;4.60;92.60;;;;;;5055812;28;20567;-81
2021/04/10 05:20:16;;;;;;;21.85;4.93;;;4.50;92.50;;;;;;5070175;28;20111;-81
2021/04/10 05:22:42;;;;;;;15.77;4.43;;;4.50;92.50;;;;;;5052984;28;20032;-81
2021/04/10 05:25:09;;;;;;;21.73;5.93;;;4.50;92.50;;;;;;5082476;28;20040;-81
2021/04/10 05:27:35;;;;;;;20.80;5.72;;;4.50;92.60;;;;;;5081121;28;20033;-81
2021/04/10 05:30:01;;;;;;;17.35;4.80;;;4.50;92.50;;;;;;5087001;28;20042;-81
2021/04/10 05:32:27;;;;;;;18.92;5.57;;;4.50;92.50;;;;;;5051108;28;20592;-82
2021/04/10 05:34:53;;;;;;;21.20;5.38;;;4.60;92.60;;;;;;5056044;28;20032;-82
2021/04/10 05:37:19;;;;;;;18.40;5.50;;;4.60;92.60;;;;;;5038140;28;20944;-82
2021/04/10 05:39:46;;;;;;;20.48;5.63;;;4.60;92.60;;;;;;5069129;28;20033;-82
2021/04/10 05:42:13;;;;;;;29.17;5.45;;;4.50;92.60;;;;;;5076374;28;20394;-82
2021/04/10 05:44:39;;;;;;;20.13;5.10;;;4.50;92.60;;;;;;5074365;28;20148;-82
2021/04/10 05:47:04;;;;;;;16.65;4.68;;;4.50;92.60;;;;;;5069122;28;20123;-82
2021/04/10 05:49:30;;;;;;;18.38;4.97;;;4.50;92.60;;;;;;5052466;28;20443;-82
2021/04/10 05:51:56;;;;;;;20.00;5.07;;;4.50;92.60;;;;;;5061373;28;20062;-82
2021/04/10 05:54:22;;;;;;;18.73;5.07;;;4.60;92.60;;;;;;5051445;28;20040;-82
2021/04/10 05:56:48;;;;;;;19.27;5.00;;;4.60;92.60;;;;;;5062599;28;20036;-82
2021/04/10 05:59:14;;;;;;;16.77;5.43;;;4.60;92.60;;;;;;5080330;28;20494;-82
2021/04/10 06:01:39;;;;;;;17.55;4.93;;;4.60;92.60;;;;;;5079207;28;20131;-82
2021/04/10 06:04:06;;;;;;;19.33;5.75;;;4.60;92.60;;;;;;5055162;28;20350;-83
2021/04/10 06:06:31;;;;;;;15.57;5.00;;;4.60;92.60;;;;;;5069429;28;20535;-81
2021/04/10 06:08:57;;;;;;;19.52;4.53;;;4.60;92.60;;;;;;5023653;28;24034;-82
2021/04/10 06:11:23;;;;;;;17.00;4.43;;;4.70;92.60;;;;;;5070774;28;20041;-82
2021/04/10 06:13:50;;;;;;;16.50;5.57;;;4.80;92.60;;;;;;5056882;28;20098;-82
2021/04/10 06:16:17;;;;;;;23.65;6.25;;;4.70;92.60;;;;;;5057039;28;20501;-82
2021/04/10 06:18:46;;;;;;;21.10;5.00;;;4.80;92.60;;;;;;5053088;28;20127;-82
2021/04/10 06:21:12;;;;;;;18.20;5.28;;;4.80;92.60;;;;;;5057947;28;20044;-83
2021/04/10 06:23:38;;;;;;;12.07;5.00;;;4.80;92.60;;;;;;5066828;28;20028;-83
2021/04/10 06:26:04;;;;;;;26.20;5.25;;;4.80;92.60;;;;;;5066672;28;20040;-82
2021/04/10 06:28:29;;;;;;;21.52;5.22;;;4.90;92.50;;;;;;5065399;28;20565;-82
2021/04/10 06:30:56;;;;;;;16.90;5.07;;;4.80;92.50;;;;;;5067370;28;20040;-82
2021/04/10 06:33:24;;;;;;;16.48;4.47;;;4.90;92.50;;;;;;5052987;28;20552;-82
2021/04/10 06:35:50;;;;;;;20.85;4.93;;;4.90;92.50;;;;;;5067979;28;20117;-82
2021/04/10 06:38:16;;;;;;;15.00;4.43;;;5.10;92.40;;;;;;5073683;28;20399;-82
2021/04/10 06:40:44;;;;;;;14.07;4.38;;;5.10;92.30;;;;;;5063593;28;20104;-82
2021/04/10 06:43:11;;;;;;;17.40;4.32;;;5.20;92.30;;;;;;5063034;28;20033;-82
2021/04/10 06:45:37;;;;;;;20.50;4.03;;;5.20;92.10;;;;;;5071098;28;20054;-82
2021/04/10 06:48:10;;;;;;;12.50;3.63;;;5.20;92.10;;;;;;5053786;28;20546;-82
2021/04/10 06:50:36;;;;;;;16.13;4.00;;;5.30;92.10;;;;;;5060932;28;20507;-81
2021/04/10 06:53:04;;;;;;;14.57;4.00;;;5.30;92.20;;;;;;5079668;28;20043;-82
2021/04/10 06:55:32;;;;;;;21.35;4.47;;;5.30;91.80;;;;;;5077270;28;20047;-82
2021/04/10 06:58:03;;;;;;;12.48;3.03;;;5.40;91.70;;;;;;5068146;28;20093;-81
2021/04/10 07:00:30;;;;;;;9.15;2.75;;;5.40;91.50;;;;;;5066201;28;20044;-82
2021/04/10 07:02:57;;;;;;;18.95;3.53;;;5.40;91.50;;;;;;5048112;28;20033;-82
2021/04/10 07:05:23;;;;;;;16.27;2.83;;;5.50;91.60;;;;;;5069640;28;20068;-83
2021/04/10 07:07:50;;;;;;;14.82;3.35;;;5.50;91.30;;;;;;5050210;28;20067;-82
2021/04/10 07:10:17;;;;;;;16.80;3.13;;;5.50;91.10;;;;;;5062573;28;20082;-82
2021/04/10 07:12:44;;;;;;;14.32;3.05;;;5.50;90.70;;;;;;5076011;28;20572;-82
2021/04/10 07:15:11;;;;;;;18.17;2.83;;;5.60;90.80;;;;;;5068543;28;20124;-82
2021/04/10 07:17:38;;;;;;;8.88;2.50;;;5.60;90.70;;;;;;5049854;28;20470;-81
2021/04/10 07:20:24;;;;;;;16.83;1.98;;;5.70;90.50;;;;;;5073770;28;20044;-82
2021/04/10 07:23:11;;;;;;;17.55;2.38;;;5.70;90.20;;;;;;5083823;28;20317;-81
2021/04/10 07:25:43;;;;;;;15.18;2.17;;;5.80;90.00;;;;;;5084165;28;20247;-82
2021/04/10 07:28:26;;;;;;;12.48;2.38;;;5.90;89.50;;;;;;5074771;28;20032;-82
2021/04/10 07:30:53;;;;;;;11.82;2.00;;;5.90;88.30;;;;;;5074895;28;20044;-81
2021/04/10 07:33:22;;;;;;;13.18;2.25;;;6.00;88.30;;;;;;5067932;28;20044;-81
2021/04/10 07:35:48;;;;;;;7.85;1.85;;;6.10;87.40;;;;;;5085413;28;20047;-83
2021/04/10 07:38:24;;;;;;;13.77;2.55;;;6.10;87.60;;;;;;5083472;28;20082;-82
2021/04/10 07:40:50;;;;;;;12.38;2.20;;;6.10;87.30;;;;;;5085992;28;20032;-82
2021/04/10 07:43:31;;;;;;;13.10;2.10;;;6.10;86.30;;;;;;5064342;28;20493;-82
2021/04/10 07:46:20;;;;;;;14.73;3.72;;;6.20;84.90;;;;;;5076200;28;20142;-82
2021/04/10 07:49:05;;;;;;;17.52;2.10;;;6.10;82.60;;;;;;5084221;28;20040;-82
2021/04/10 07:51:37;;;;;;;14.63;2.22;;;6.10;80.60;;;;;;5076721;28;20078;-82
2021/04/10 07:54:27;;;;;;;17.60;2.05;;;6.10;81.50;;;;;;5081578;28;20131;-83
2021/04/10 07:56:54;;;;;;;10.93;1.73;;;6.20;80.60;;;;;;5061502;28;20105;-83
2021/04/10 07:59:20;;;;;;;16.95;2.17;;;6.30;80.20;;;;;;5081009;28;20049;-81
2021/04/10 08:01:46;;;;;;;12.05;1.88;;;6.30;79.70;;;;;;5087191;28;20124;-81
2021/04/10 08:04:16;;;;;;;9.32;1.80;;;6.40;80.10;;;;;;5081090;28;20526;-81
2021/04/10 08:07:01;;;;;;;13.13;2.10;;;6.50;80.70;;;;;;5080076;28;20032;-80
2021/04/10 08:09:32;;;;;;;13.85;2.20;;;6.70;80.70;;;;;;5084554;28;20123;-81
2021/04/10 08:11:58;;;;;;;13.43;2.47;;;6.90;81.10;;;;;;5069837;28;20399;-81
2021/04/10 08:14:24;;;;;;;7.95;1.50;;;7.00;80.80;;;;;;5087396;28;20075;-81
2021/04/10 08:16:53;;;;;;;7.72;2.25;;;7.10;80.60;;;;;;5078652;28;20028;-81
2021/04/10 08:19:30;;;;;;;12.70;1.75;;;7.20;80.10;;;;;;5085120;28;20040;-81
2021/04/10 08:21:56;;;;;;;12.85;2.30;;;7.30;78.50;;;;;;5069748;28;20335;-82
2021/04/10 08:24:33;;;;;;;9.02;1.80;;;7.20;77.50;;;;;;5085033;28;20120;-81
2021/04/10 08:27:04;;;;;;;12.50;1.98;;;7.10;76.50;;;;;;5088226;28;20036;-82
2021/04/10 08:29:31;;;;;;;11.95;1.95;;;7.10;77.00;;;;;;5082641;28;20434;-82
2021/04/10 08:31:59;;;;;;;9.15;1.98;;;7.20;76.90;;;;;;5079530;28;20043;-81
2021/04/10 08:34:26;;;;;;;14.45;2.80;;;7.10;76.50;;;;;;5080628;28;20028;-82
2021/04/10 08:37:01;;;;;;;11.35;1.90;;;7.20;77.40;;;;;;5080265;28;20025;-81
2021/04/10 08:39:36;;;;;;;13.88;1.80;;;7.50;76.80;;;;;;5081402;28;20028;-81
2021/04/10 08:42:03;;;;;;;16.27;2.10;;;7.60;74.70;;;;;;5084219;28;20096;-81
2021/04/10 08:44:34;;;;;;;13.60;2.45;;;7.50;75.10;;;;;;5063641;28;20039;-83
2021/04/10 08:47:00;;;;;;;8.95;2.40;;;7.50;74.70;;;;;;5093188;28;20593;-82
2021/04/10 08:49:30;;;;;;;10.50;2.22;;;7.50;75.40;;;;;;5086286;28;20032;-81
2021/04/10 08:52:02;;;;;;;13.77;2.42;;;7.60;75.60;;;;;;5076664;28;20032;-81
2021/04/10 08:54:32;;;;;;;11.80;2.17;;;7.60;75.30;;;;;;5083198;28;20067;-82
2021/04/10 08:56:58;;;;;;;22.17;2.78;;;7.70;75.30;;;;;;5077202;28;20077;-80
2021/04/10 08:59:24;;;;;;;11.43;2.30;;;7.70;75.20;;;;;;5085861;28;20043;-81
2021/04/10 09:02:08;;;;;;;10.48;2.15;;;7.70;75.40;;;;;;5086858;28;20028;-81
2021/04/10 09:04:57;;;;;;;13.98;2.95;;;7.80;74.20;;;;;;5086288;28;20088;-81
2021/04/10 09:07:48;;;;;;;12.57;2.00;;;7.90;76.00;;;;;;5085710;28;20042;-81
2021/04/10 09:10:29;;;;;;;11.43;1.90;;;8.20;76.30;;;;;;5086177;28;20572;-82
2021/04/10 09:13:15;;;;;;;11.15;2.08;;;8.40;73.80;;;;;;5088484;28;20039;-82
2021/04/10 09:15:42;;;;;;;10.43;2.28;;;8.40;72.90;;;;;;5088483;28;20553;-81
2021/04/10 09:18:13;;;;;;;12.60;2.35;;;8.40;72.40;;;;;;5080920;28;20074;-81
2021/04/10 09:20:45;;;;;;;15.15;2.50;;;8.30;72.60;;;;;;5086306;28;20036;-81
2021/04/10 09:23:34;;;;;;;15.02;2.70;;;8.40;73.30;;;;;;5086697;28;20470;-80
2021/04/10 09:26:16;;;;;;;13.02;2.80;;;8.40;71.30;;;;;;5083626;28;20648;-80
2021/04/10 09:28:55;;;;;;;13.85;2.55;;;8.50;72.00;;;;;;5082341;28;20056;-80
2021/04/10 09:31:40;;;;;;;8.20;2.15;;;8.50;71.50;;;;;;5082174;28;20028;-81
2021/04/10 09:34:26;;;;;;;12.88;2.70;;;8.50;72.60;;;;;;5078205;28;20036;-82
2021/04/10 09:36:52;;;;;;;12.38;2.58;;;8.60;73.00;;;;;;5076631;28;20051;-80
2021/04/10 09:40:05;;;;;;;17.17;3.67;;;8.80;72.70;;;;;;5084208;28;20039;-81
2021/04/10 09:42:34;;;;;;;14.43;2.08;;;8.90;71.00;;;;;;5095480;28;20040;-80
2021/04/10 09:45:31;;;;;;;12.35;2.50;;;8.90;71.60;;;;;;5088907;28;20035;-81
2021/04/10 09:50:27;;;;;;;17.80;2.33;;;8.90;71.80;;;;;;5085254;28;20067;-81
2021/04/10 09:53:03;;;;;;;11.52;2.13;;;8.90;72.20;;;;;;5081716;28;20726;-81
2021/04/10 09:55:33;;;;;;;14.82;2.03;;;9.00;70.70;;;;;;5060976;28;20085;-80
2021/04/10 09:58:01;;;;;;;9.07;1.88;;;9.10;69.20;;;;;;5079060;28;20059;-82
2021/04/10 10:00:38;;;;;;;8.73;1.88;;;9.10;68.50;;;;;;5081450;28;20060;-81
2021/04/10 10:03:08;;;;;;;12.00;2.03;;;9.10;68.60;;;;;;5084238;28;20043;-81
2021/04/10 10:05:40;;;;;;;12.00;2.55;;;9.00;67.10;;;;;;5066110;28;20024;-81
2021/04/10 10:08:07;;;;;;;9.50;2.30;;;8.90;67.70;;;;;;5063921;28;20041;-80
2021/04/10 10:10:34;;;;;;;11.73;2.20;;;8.70;66.50;;;;;;5082257;28;20032;-80
2021/04/10 10:13:04;;;;;;;14.80;2.70;;;8.50;67.40;;;;;;5077077;28;20482;-81
2021/04/10 10:15:31;;;;;;;11.63;2.10;;;8.50;68.30;;;;;;5080664;28;20494;-81
2021/04/10 10:17:57;;;;;;;11.07;2.30;;;8.60;67.60;;;;;;5065166;28;20641;-80
2021/04/10 10:20:23;;;;;;;8.75;2.17;;;8.60;68.30;;;;;;5083726;28;20036;-81
2021/04/10 10:22:49;;;;;;;10.55;1.98;;;8.80;68.80;;;;;;5065040;28;20386;-82
2021/04/10 10:25:17;;;;;;;12.68;2.42;;;8.90;68.40;;;;;;5082346;28;20640;-81
2021/04/10 10:27:45;;;;;;;14.93;2.50;;;9.10;69.00;;;;;;5085548;28;20546;-82
2021/04/10 10:30:17;;;;;;;11.07;2.55;;;9.40;68.20;;;;;;5089665;28;20059;-81
2021/04/10 10:32:49;;;;;;;11.65;2.08;;;9.40;66.60;;;;;;5070741;28;20426;-81
2021/04/10 10:35:17;;;;;;;4.78;1.70;;;9.50;66.90;;;;;;5054601;28;20271;-81
2021/04/10 10:37:48;;;;;;;10.13;2.22;;;9.40;67.00;;;;;;5087574;28;20038;-81
2021/04/10 10:40:26;;;;;;;10.80;2.40;;;9.50;66.70;;;;;;5083626;28;20040;-80
2021/04/10 10:42:58;;;;;;;12.45;1.95;;;9.30;65.20;;;;;;5084618;28;20036;-81
2021/04/10 10:45:44;;;;;;;15.33;2.67;;;9.20;66.30;;;;;;5083923;28;20051;-81
2021/04/10 10:48:35;;;;;;;12.20;2.33;;;9.20;66.20;;;;;;5085537;28;20038;-82
2021/04/10 10:51:00;;;;;;;9.38;2.30;;;9.20;65.10;;;;;;5075059;28;20041;-81
2021/04/10 10:53:27;;;;;;;17.08;2.30;;;9.20;66.80;;;;;;5083132;28;20062;-81
2021/04/10 10:56:22;;;;;;;11.93;2.20;;;9.30;66.80;;;;;;5082616;28;20028;-82
2021/04/10 10:58:49;;;;;;;7.90;1.83;;;9.50;68.10;;;;;;5093541;28;20602;-81
2021/04/10 11:01:17;;;;;;;16.30;2.17;;;9.60;67.90;;;;;;5081510;28;20028;-82
2021/04/10 11:04:17;;;;;;;14.57;2.03;;;9.80;67.50;;;;;;5089193;28;20043;-82
2021/04/10 11:06:47;;;;;;;13.35;2.58;;;9.90;67.30;;;;;;5082156;28;20051;-82
2021/04/10 11:09:24;;;;;;;11.55;2.38;;;9.90;65.80;;;;;;5083917;28;20049;-82
2021/04/10 11:11:52;;;;;;;7.95;2.00;;;9.90;64.90;;;;;;5102920;28;20039;-82
2021/04/10 11:14:33;;;;;;;11.88;2.63;;;9.80;64.70;;;;;;5043513;28;20202;-82
2021/04/10 11:17:02;;;;;;;11.40;2.05;;;9.80;65.90;;;;;;5071661;28;20036;-83
2021/04/10 11:19:34;;;;;;;12.93;2.20;;;9.90;65.90;;;;;;5076999;28;20403;-80
2021/04/10 11:22:02;;;;;;;7.53;2.28;;;9.90;65.50;;;;;;5079233;28;20055;-82
2021/04/10 11:24:42;;;;;;;9.85;2.30;;;10.00;65.90;;;;;;5091737;28;20039;-81
2021/04/10 11:27:14;;;;;;;11.32;2.42;;;9.90;62.50;;;;;;5087487;28;20043;-80
2021/04/10 11:30:03;;;;;;;15.18;2.10;;;9.60;63.80;;;;;;5085125;28;20028;-80
2021/04/10 11:32:31;;;;;;;9.82;2.70;;;9.40;63.40;;;;;;5079094;28;20049;-79
2021/04/10 11:35:14;;;;;;;11.32;2.50;;;9.20;63.00;;;;;;5055080;28;20135;-81
2021/04/10 11:37:46;;;;;;;10.40;2.10;;;9.00;62.70;;;;;;5075583;28;20096;-80
2021/04/10 11:40:28;;;;;;;8.43;2.15;;;9.00;64.30;;;;;;5047810;28;20094;-80
2021/04/10 11:42:56;;;;;;;10.63;2.42;;;9.00;65.00;;;;;;5075051;28;20032;-80
2021/04/10 11:45:35;;;;;;;11.40;2.63;;;9.10;65.00;;;;;;5080447;28;20674;-81
2021/04/10 11:48:15;;;;;;;10.52;2.42;;;9.20;63.90;;;;;;5086642;28;20096;-80
2021/04/10 11:50:50;;;;;;;9.18;2.35;;;9.20;64.40;;;;;;5080771;28;20552;-80
2021/04/10 11:53:20;;;;;;;8.63;2.42;;;9.20;65.30;;;;;;5066942;28;20053;-80
2021/04/10 11:55:48;;;;;;;7.25;1.98;;;9.20;64.30;;;;;;5074489;28;20043;-79
2021/04/10 11:58:14;;;;;;;11.75;2.10;;;9.30;65.00;;;;;;5071884;28;20103;-82
2021/04/10 12:00:40;;;;;;;10.25;2.67;;;9.30;65.30;;;;;;5036493;28;20064;-81
2021/04/10 12:03:11;;;;;;;14.55;2.58;;;9.30;65.00;;;;;;5057559;28;20032;-81
2021/04/10 12:05:43;;;;;;;12.45;2.20;;;9.40;64.70;;;;;;5071437;28;20494;-81
2021/04/10 12:08:22;;;;;;;12.50;2.60;;;9.30;64.60;;;;;;5057407;28;20501;-81
2021/04/10 12:10:50;;;;;;;16.00;2.30;;;9.30;64.40;;;;;;5061306;28;20414;-81
2021/04/10 12:13:17;;;;;;;9.65;2.20;;;9.10;64.60;;;;;;5066764;28;20059;-80
2021/04/10 12:15:47;;;;;;;10.80;2.28;;;9.10;65.10;;;;;;5067840;28;20037;-81
2021/04/10 12:18:13;;;;;;;12.63;2.67;;;9.20;64.90;;;;;;5065098;28;20020;-81
2021/04/10 12:20:39;;;;;;;7.05;2.05;;;9.20;65.30;;;;;;5051423;28;20646;-81
2021/04/10 12:23:07;;;;;;;11.30;2.10;;;9.20;64.90;;;;;;5063676;28;20085;-82
2021/04/10 12:25:34;;;;;;;14.00;2.15;;;9.30;64.40;;;;;;5072268;28;20035;-81
2021/04/10 12:28:00;;;;;;;13.20;2.40;;;9.30;64.80;;;;;;5074900;28;20078;-82
2021/04/10 12:30:26;;;;;;;9.60;1.65;;;9.40;64.20;;;;;;5082498;28;20043;-81
2021/04/10 12:32:52;;;;;;;12.10;2.40;;;9.50;63.90;;;;;;5073266;28;20057;-81
2021/04/10 12:35:18;;;;;;;10.70;2.30;;;9.60;64.30;;;;;;5074228;28;20039;-81
2021/04/10 12:37:44;;;;;;;9.23;2.30;;;9.70;63.10;;;;;;5081982;28;20038;-81
2021/04/10 12:40:11;;;;;;;8.82;2.78;;;9.60;60.40;;;;;;5086584;28;20036;-82
2021/04/10 12:42:37;;;;;;;11.23;2.15;;;9.50;61.90;;;;;;5093382;28;20056;-83
2021/04/10 12:45:05;;;;;;;11.75;2.90;;;9.60;62.70;;;;;;5061161;28;20483;-82
2021/04/10 12:47:31;;;;;;;9.10;2.03;;;9.60;62.30;;;;;;5074183;28;20822;-83
2021/04/10 12:49:56;;;;;;;13.25;2.47;;;9.60;62.40;;;;;;5067611;28;20301;-82
2021/04/10 12:52:22;;;;;;;10.15;2.35;;;9.60;62.70;;;;;;5053255;28;20039;-82
2021/04/10 12:54:48;;;;;;;14.45;2.53;;;9.60;62.90;;;;;;5106225;28;20062;-84
2021/04/10 12:57:14;;;;;;;11.73;2.20;;;9.60;62.40;;;;;;5099606;28;20050;-81
2021/04/10 12:59:40;;;;;;;12.75;2.40;;;9.70;62.60;;;;;;5076672;28;20055;-86
2021/04/10 13:02:06;;;;;;;6.80;2.17;;;9.80;63.10;;;;;;5068651;28;20051;-85
2021/04/10 13:04:32;;;;;;;15.82;2.88;;;9.90;62.80;;;;;;5083210;28;20040;-84